PWSweather.com
Personal Weather Stations
Station Observations
19121909
Balcony, LuedinghausenDE

BalconyLuedinghausenDE

Lat: 51.7674749, Lon: 7.414684299999976

Elevation: 712

Station Type: FineOffset WH1080

http://www.wetter-luedinghausen.de

Latest ConditionsUpdated 2:10:00 AM GMT+01:01 Monday, Dec 18, 2017
Currently Today's Max Today's Min Today's Average
Temperature 32.6°F0.3°C 37.7°F3.2°C 32.6°F0.3°C 35.1°F1.7°C
Dew Point 29.7°F-1.3°C 32.3°F0.2°C 29.7°F-1.3°C 31.2°F-0.4°C
Winds 3.2 mph ESE5.1 kmh ESE 10.2 mph SE16.4 kmh SE - 5.8 mph 9.3 kmh
Wind Gusts 4.2 mph6.8 kmh 22.1 mph35.6 kmh - -
Humidity 89% 89% 80% 86%
Pressure 30.01 in1016.3 mb 30.08 in1018.6 mb 30.01 in1016.3 mb -
Precipitation - 0.08 in2.0 mm - -
Hour Temp Dew Point Humidity Winds Wind Gusts Pressure Precip Precip Rate Daily Precip Total
02:10 AM 32.6°F0.3°C 29.7°F-1.3°C 89% 3.2 mph ESE5.1 kmh ESE 4.2 mph6.8 kmh 30.01 in1016.3 mb 0.05 in1.3 mm 0.00 in0.0 mm 0.08 in2.0 mm
02:05 AM 32.7°F0.4°C 29.8°F-1.2°C 89% 3.2 mph SE5.1 kmh SE 6.3 mph10.1 kmh 30.01 in1016.3 mb 0.05 in1.3 mm 0.00 in0.0 mm 0.08 in2.0 mm
02:00 AM 32.8°F0.4°C 29.8°F-1.2°C 89% 3.3 mph SE5.3 kmh SE 4.5 mph7.2 kmh 30.03 in1016.9 mb 0.05 in1.3 mm 0.00 in0.0 mm 0.08 in2.0 mm
01:55 AM 33.0°F0.6°C 29.9°F-1.2°C 88% 2.8 mph SE4.5 kmh SE 8.4 mph13.5 kmh 30.03 in1016.9 mb 0.05 in1.3 mm 0.00 in0.0 mm 0.08 in2.0 mm
01:50 AM 33.2°F0.7°C 30.0°F-1.1°C 88% 2.7 mph SE4.3 kmh SE 8.4 mph13.5 kmh 30.03 in1016.9 mb 0.05 in1.3 mm 0.00 in0.0 mm 0.08 in2.0 mm
01:45 AM 33.3°F0.7°C 30.1°F-1.1°C 88% 2.9 mph SE4.7 kmh SE 3.5 mph5.6 kmh 30.03 in1016.9 mb 0.08 in2.0 mm 0.36 in9.1 mm 0.08 in2.0 mm
01:40 AM 33.4°F0.8°C 30.3°F-0.9°C 88% 3.5 mph SE5.6 kmh SE 8.2 mph13.2 kmh 30.04 in1017.3 mb 0.05 in1.3 mm 0.00 in0.0 mm 0.05 in1.3 mm
01:35 AM 33.6°F0.9°C 30.5°F-0.8°C 88% 3.8 mph SE6.1 kmh SE 8.2 mph13.2 kmh 30.04 in1017.3 mb 0.05 in1.3 mm 0.00 in0.0 mm 0.05 in1.3 mm
01:30 AM 33.8°F1.0°C 30.5°F-0.8°C 88% 4.1 mph SE6.6 kmh SE 6.0 mph9.7 kmh 30.04 in1017.3 mb 0.05 in1.3 mm 0.00 in0.0 mm 0.05 in1.3 mm
01:25 AM 34.1°F1.2°C 30.6°F-0.8°C 87% 4.9 mph SE7.9 kmh SE 6.6 mph10.6 kmh 30.04 in1017.3 mb 0.05 in1.3 mm 0.00 in0.0 mm 0.05 in1.3 mm
01:20 AM 34.4°F1.3°C 31.0°F-0.6°C 87% 5.5 mph ESE8.9 kmh ESE 8.6 mph13.8 kmh 30.04 in1017.3 mb 0.05 in1.3 mm 0.24 in6.1 mm 0.05 in1.3 mm
01:15 AM 34.8°F1.6°C 31.3°F-0.4°C 87% 5.4 mph SE8.7 kmh SE 10.9 mph17.5 kmh 30.04 in1017.3 mb 0.03 in0.8 mm 0.00 in0.0 mm 0.03 in0.8 mm
01:10 AM 35.1°F1.7°C 31.6°F-0.2°C 87% 4.8 mph ENE7.7 kmh ENE 11.7 mph18.8 kmh 30.04 in1017.3 mb 0.03 in0.8 mm 0.00 in0.0 mm 0.03 in0.8 mm
01:05 AM 35.2°F1.8°C 31.8°F-0.1°C 87% 5.1 mph ESE8.2 kmh ESE 8.2 mph13.2 kmh 30.04 in1017.3 mb 0.03 in0.8 mm 0.00 in0.0 mm 0.03 in0.8 mm
01:00 AM 35.4°F1.9°C 31.8°F-0.1°C 87% 6.2 mph SE10.0 kmh SE 8.0 mph12.9 kmh 30.05 in1017.6 mb 0.03 in0.8 mm 0.00 in0.0 mm 0.03 in0.8 mm
12:55 AM 35.4°F1.9°C 31.7°F-0.2°C 86% 7.0 mph SE11.3 kmh SE 10.0 mph16.1 kmh 30.05 in1017.6 mb 0.03 in0.8 mm 0.00 in0.0 mm 0.03 in0.8 mm
12:50 AM 35.6°F2.0°C 31.8°F-0.1°C 86% 7.5 mph ESE12.1 kmh ESE 15.6 mph25.1 kmh 30.05 in1017.6 mb 0.03 in0.8 mm 0.36 in9.1 mm 0.03 in0.8 mm
12:45 AM 35.8°F2.1°C 31.8°F-0.1°C 85% 8.3 mph SE13.4 kmh SE 11.7 mph18.8 kmh 30.05 in1017.6 mb 0.00 in0.0 mm 0.00 in0.0 mm 0.00 in0.0 mm
12:40 AM 36.1°F2.3°C 31.9°F-0.1°C 85% 8.4 mph SE13.5 kmh SE 14.3 mph23.0 kmh 30.07 in1018.3 mb 0.00 in0.0 mm 0.00 in0.0 mm 0.00 in0.0 mm
12:35 AM 36.3°F2.4°C 32.0°F0.0°C 84% 6.6 mph SE10.6 kmh SE 13.8 mph22.2 kmh 30.07 in1018.3 mb 0.00 in0.0 mm 0.00 in0.0 mm 0.00 in0.0 mm
12:30 AM 36.6°F2.6°C 32.2°F0.1°C 84% 6.3 mph NE10.1 kmh NE 13.7 mph22.0 kmh 30.07 in1018.3 mb 0.00 in0.0 mm 0.00 in0.0 mm 0.00 in0.0 mm
12:25 AM 36.9°F2.7°C 32.1°F0.1°C 83% 9.1 mph SW14.6 kmh SW 10.7 mph17.2 kmh 30.07 in1018.3 mb 0.00 in0.0 mm 0.00 in0.0 mm 0.00 in0.0 mm
12:20 AM 37.1°F2.8°C 32.1°F0.1°C 82% 10.2 mph SE16.4 kmh SE 18.7 mph30.1 kmh 30.07 in1018.3 mb 0.00 in0.0 mm 0.00 in0.0 mm 0.00 in0.0 mm
12:15 AM 37.4°F3.0°C 32.1°F0.1°C 81% 9.1 mph ESE14.6 kmh ESE 22.1 mph35.6 kmh 30.07 in1018.3 mb 0.00 in0.0 mm 0.00 in0.0 mm 0.00 in0.0 mm
12:10 AM 37.5°F3.1°C 32.0°F0.0°C 80% 7.6 mph SE12.2 kmh SE 8.8 mph14.2 kmh 30.07 in1018.3 mb 0.00 in0.0 mm 0.00 in0.0 mm 0.00 in0.0 mm
12:05 AM 37.7°F3.2°C 32.1°F0.1°C 80% 6.7 mph SSW10.8 kmh SSW 11.7 mph18.8 kmh 30.07 in1018.3 mb 0.00 in0.0 mm 0.00 in0.0 mm 0.00 in0.0 mm
12:00 AM 37.7°F3.2°C 32.3°F0.2°C 81% 7.4 mph SSE11.9 kmh SSE 10.7 mph17.2 kmh 30.08 in1018.6 mb 0.00 in0.0 mm 0.00 in0.0 mm 0.00 in0.0 mm